sensor_id;sensor_type;location;lat;lon;timestamp;pressure;altitude;pressure_sealevel;temperature;humidity
6869;BME280;3473;42.604;23.496;2023-04-26T13:18:17;21373.31;;;-140.19;48.18
6869;BME280;3473;42.604;23.496;2023-04-26T13:19:49;21454.88;;;-140.19;47.96
6869;BME280;3473;42.604;23.496;2023-04-26T13:21:22;21491.78;;;-140.19;48.68
6869;BME280;3473;42.604;23.496;2023-04-26T13:22:53;21522.84;;;-140.19;49.15
6869;BME280;3473;42.604;23.496;2023-04-26T13:24:25;21530.59;;;-140.19;49.50
6869;BME280;3473;42.604;23.496;2023-04-26T13:25:57;21697.59;;;-140.19;49.57
6869;BME280;3473;42.604;23.496;2023-04-26T13:27:28;21472.34;;;-140.19;49.06
6869;BME280;3473;42.604;23.496;2023-04-26T13:29:00;21550.03;;;-140.19;48.94
6869;BME280;3473;42.604;23.496;2023-04-26T13:30:33;21495.66;;;-140.19;49.02
6869;BME280;3473;42.604;23.496;2023-04-26T13:32:05;21606.34;;;-140.19;48.13
6869;BME280;3473;42.604;23.496;2023-04-26T13:33:39;21540.31;;;-140.19;48.13
6869;BME280;3473;42.604;23.496;2023-04-26T13:35:10;21627.69;;;-140.19;48.41
6869;BME280;3473;42.604;23.496;2023-04-26T13:36:42;21470.41;;;-140.19;48.02
6869;BME280;3473;42.604;23.496;2023-04-26T13:38:14;21594.69;;;-140.19;48.54
6869;BME280;3473;42.604;23.496;2023-04-26T13:39:46;21569.44;;;-140.19;48.50
6869;BME280;3473;42.604;23.496;2023-04-26T13:41:18;21557.78;;;-140.19;48.20
6869;BME280;3473;42.604;23.496;2023-04-26T13:42:51;21503.41;;;-140.19;47.58
6869;BME280;3473;42.604;23.496;2023-04-26T13:44:23;21532.53;;;-140.19;46.46
6869;BME280;3473;42.604;23.496;2023-04-26T13:45:55;21499.53;;;-140.19;46.61
6869;BME280;3473;42.604;23.496;2023-04-26T13:47:27;21528.66;;;-140.19;46.77
6869;BME280;3473;42.604;23.496;2023-04-26T13:49:00;21528.66;;;-140.19;46.06
6869;BME280;3473;42.604;23.496;2023-04-26T13:50:31;21544.19;;;-140.19;46.12
6869;BME280;3473;42.604;23.496;2023-04-26T13:52:03;21511.19;;;-140.19;46.20
6869;BME280;3473;42.604;23.496;2023-04-26T13:53:35;21441.28;;;-140.19;46.41
6869;BME280;3473;42.604;23.496;2023-04-26T13:55:07;21472.34;;;-140.19;46.32
6869;BME280;3473;42.604;23.496;2023-04-26T13:56:39;21328.66;;;-140.19;46.49
6869;BME280;3473;42.604;23.496;2023-04-26T13:58:11;21561.69;;;-140.19;46.47
6869;BME280;3473;42.604;23.496;2023-04-26T13:59:43;21588.88;;;-140.19;46.01
6869;BME280;3473;42.604;23.496;2023-04-26T14:01:15;21608.28;;;-140.19;46.62
6869;BME280;3473;42.604;23.496;2023-04-26T14:02:47;21530.59;;;-140.19;47.23
6869;BME280;3473;42.604;23.496;2023-04-26T14:04:20;21447.09;;;-140.19;46.36
6869;BME280;3473;42.604;23.496;2023-04-26T14:05:52;21536.44;;;-140.19;46.29
6869;BME280;3473;42.604;23.496;2023-04-26T14:07:23;21493.72;;;-140.19;46.42
6869;BME280;3473;42.604;23.496;2023-04-26T14:08:55;21579.16;;;-140.19;46.67
6869;BME280;3473;42.604;23.496;2023-04-26T14:10:27;21606.34;;;-140.19;47.31
6869;BME280;3473;42.604;23.496;2023-04-26T14:11:59;21495.66;;;-140.19;47.54
6869;BME280;3473;42.604;23.496;2023-04-26T14:13:30;21520.91;;;-140.19;47.45
6869;BME280;3473;42.604;23.496;2023-04-26T14:15:03;21563.63;;;-140.19;48.30
6869;BME280;3473;42.604;23.496;2023-04-26T14:16:35;21610.22;;;-140.19;48.20
6869;BME280;3473;42.604;23.496;2023-04-26T14:18:07;21616.06;;;-140.19;47.81
6869;BME280;3473;42.604;23.496;2023-04-26T14:19:40;21656.84;;;-140.19;48.47
6869;BME280;3473;42.604;23.496;2023-04-26T14:21:12;21682.06;;;-140.19;48.34
6869;BME280;3473;42.604;23.496;2023-04-26T14:22:44;21594.69;;;-140.19;48.46
6869;BME280;3473;42.604;23.496;2023-04-26T14:24:16;21777.22;;;-140.19;48.41
6869;BME280;3473;42.604;23.496;2023-04-26T14:25:50;21783.06;;;-140.19;48.51
6869;BME280;3473;42.604;23.496;2023-04-26T14:27:22;21738.41;;;-140.19;48.57
6869;BME280;3473;42.604;23.496;2023-04-26T14:28:53;21823.84;;;-140.19;48.87
6869;BME280;3473;42.604;23.496;2023-04-26T14:30:27;21738.41;;;-140.19;49.17
6869;BME280;3473;42.604;23.496;2023-04-26T14:31:59;21835.50;;;-140.19;49.21
6869;BME280;3473;42.604;23.496;2023-04-26T14:46:34;21730.63;;;-140.19;50.40
6869;BME280;3473;42.604;23.496;2023-04-26T14:48:06;21866.56;;;-140.19;50.35
6869;BME280;3473;42.604;23.496;2023-04-26T14:49:38;21882.09;;;-140.19;50.92
6869;BME280;3473;42.604;23.496;2023-04-26T14:51:09;21905.41;;;-140.19;50.41
6869;BME280;3473;42.604;23.496;2023-04-26T14:52:41;21856.84;;;-140.19;51.33
6869;BME280;3473;42.604;23.496;2023-04-26T14:54:13;21823.84;;;-140.19;51.56
6869;BME280;3473;42.604;23.496;2023-04-26T14:55:45;21911.22;;;-140.19;51.66
6869;BME280;3473;42.604;23.496;2023-04-26T14:57:24;21963.66;;;-140.19;52.17
6869;BME280;3473;42.604;23.496;2023-04-26T14:58:56;22060.78;;;-140.19;53.03
6869;BME280;3473;42.604;23.496;2023-04-26T15:00:28;22124.88;;;-140.19;52.91
6869;BME280;3473;42.604;23.496;2023-04-26T15:02:01;22002.50;;;-140.19;52.74
6869;BME280;3473;42.604;23.496;2023-04-26T15:03:33;22093.78;;;-140.19;52.41
6869;BME280;3473;42.604;23.496;2023-04-26T17:08:39;23214.66;;;-140.19;66.43
6869;BME280;3473;42.604;23.496;2023-04-26T17:10:11;23201.03;;;-140.19;66.80
6869;BME280;3473;42.604;23.496;2023-04-26T19:19:27;23236.00;;;-140.19;65.80
6869;BME280;3473;42.604;23.496;2023-04-26T19:21:02;23305.97;;;-140.19;65.50
6869;BME280;3473;42.604;23.496;2023-04-26T21:22:07;23508.03;;;-140.19;65.78
6869;BME280;3473;42.604;23.496;2023-04-26T21:53:52;23566.31;;;-140.19;65.43
6869;BME280;3473;42.604;23.496;2023-04-26T21:55:23;23577.97;;;-140.19;63.99
6869;BME280;3473;42.604;23.496;2023-04-26T21:56:56;23616.84;;;-140.19;63.55
6869;BME280;3473;42.604;23.496;2023-04-26T21:58:27;23496.38;;;-140.19;62.75
6869;BME280;3473;42.604;23.496;2023-04-26T21:59:59;23663.47;;;-140.19;62.86
6869;BME280;3473;42.604;23.496;2023-04-26T23:48:23;23391.44;;;-140.19;54.47
